Time;durP1;ratioP1;P1;durP2;ratioP2;P2;SDS_P1;SDS_P2;PMS_P1;PMS_P2;Temp;Humidity;BMP_temperature;BMP_pressure;BME280_temperature;BME280_humidity;BME280_pressure;Samples;Min_cycle;Max_cycle;Signal;HPM_P1;HPM_P2
2021/12/31 00:01:49;;;;;;;23.93;19.07;;;5.80;99.90;;;;;;5112438;28;20174;-85
2021/12/31 00:04:15;;;;;;;22.43;19.27;;;5.80;99.90;;;;;;5112019;28;20182;-84
2021/12/31 00:06:44;;;;;;;21.47;18.80;;;5.70;99.90;;;;;;5112236;28;20213;-84
2021/12/31 00:09:10;;;;;;;26.17;18.93;;;5.80;99.90;;;;;;5112287;28;20220;-85
2021/12/31 00:11:38;;;;;;;21.37;19.17;;;5.70;99.90;;;;;;5112322;28;20189;-84
2021/12/31 00:14:03;;;;;;;25.40;19.57;;;5.80;99.90;;;;;;5121675;28;20158;-87
2021/12/31 00:16:29;;;;;;;22.33;19.30;;;5.70;99.90;;;;;;5130917;28;20230;-83
2021/12/31 00:18:55;;;;;;;26.63;18.83;;;5.70;99.90;;;;;;5105141;28;20177;-84
2021/12/31 00:21:21;;;;;;;22.37;18.20;;;5.60;99.90;;;;;;5094242;28;20185;-84
2021/12/31 00:23:47;;;;;;;24.83;19.83;;;5.60;99.90;;;;;;5112562;28;20544;-84
2021/12/31 00:26:12;;;;;;;22.43;18.63;;;5.60;99.90;;;;;;5111756;28;20304;-84
2021/12/31 00:28:38;;;;;;;22.10;17.97;;;5.60;99.90;;;;;;5093863;28;20548;-84
2021/12/31 00:31:04;;;;;;;22.83;17.93;;;5.60;99.90;;;;;;5093341;28;20611;-83
2021/12/31 00:33:30;;;;;;;21.20;18.10;;;5.50;99.90;;;;;;5093598;28;20184;-84
2021/12/31 00:35:55;;;;;;;23.07;19.27;;;5.60;99.90;;;;;;5111674;28;20178;-83
2021/12/31 00:38:21;;;;;;;21.13;18.20;;;5.50;99.90;;;;;;5111402;28;20182;-83
2021/12/31 00:40:47;;;;;;;22.00;17.10;;;5.40;99.90;;;;;;5114509;28;20173;-84
2021/12/31 00:43:13;;;;;;;21.77;17.30;;;5.40;99.90;;;;;;5111912;28;20176;-83
2021/12/31 00:45:40;;;;;;;16.53;14.43;;;5.40;99.90;;;;;;5095264;28;20266;-84
2021/12/31 00:48:08;;;;;;;20.60;17.80;;;5.30;99.90;;;;;;5111622;28;20201;-87
2021/12/31 00:50:35;;;;;;;18.77;15.17;;;5.30;99.90;;;;;;5113088;28;20177;-87
2021/12/31 00:53:01;;;;;;;16.60;14.80;;;5.30;99.90;;;;;;5117156;28;20177;-87
2021/12/31 00:55:27;;;;;;;22.73;16.53;;;5.30;99.90;;;;;;5112215;28;20167;-86
2021/12/31 00:57:52;;;;;;;16.20;12.80;;;5.30;99.90;;;;;;5093775;28;20534;-86
2021/12/31 01:00:18;;;;;;;14.07;12.27;;;5.40;99.90;;;;;;5094552;28;20178;-88
2021/12/31 01:02:46;;;;;;;18.47;14.30;;;5.40;99.90;;;;;;5112401;28;20181;-88
2021/12/31 01:05:13;;;;;;;20.17;15.03;;;5.30;99.90;;;;;;5112518;28;20527;-89
2021/12/31 01:07:39;;;;;;;16.30;13.33;;;5.30;99.90;;;;;;5093831;28;20212;-87
2021/12/31 01:10:10;;;;;;;15.53;12.80;;;5.20;99.90;;;;;;5111136;28;20181;-85
2021/12/31 01:12:36;;;;;;;13.30;11.90;;;5.20;99.90;;;;;;5125388;28;20154;-84
2021/12/31 01:15:07;;;;;;;13.43;12.10;;;5.10;99.90;;;;;;5135861;28;20196;-87
2021/12/31 01:20:18;;;;;;;12.33;10.87;;;5.10;99.90;;;;;;5115972;28;20168;-87
2021/12/31 01:22:45;;;;;;;14.13;11.00;;;5.10;99.90;;;;;;5094693;28;20170;-87
2021/12/31 01:25:11;;;;;;;10.97;9.83;;;5.10;99.90;;;;;;5112530;28;20166;-89
2021/12/31 01:27:38;;;;;;;11.63;9.87;;;5.10;99.90;;;;;;5112234;28;20201;-86
2021/12/31 01:30:06;;;;;;;13.40;10.40;;;5.10;99.90;;;;;;5111622;28;20158;-88
2021/12/31 01:32:32;;;;;;;11.67;10.30;;;5.10;99.90;;;;;;5092700;28;20181;-86
2021/12/31 01:34:59;;;;;;;10.70;9.70;;;5.10;99.90;;;;;;5111159;28;20795;-83
2021/12/31 01:37:25;;;;;;;11.30;8.97;;;5.10;99.90;;;;;;5111259;28;20256;-83
2021/12/31 01:39:50;;;;;;;11.10;9.77;;;5.10;99.90;;;;;;5110937;28;20296;-88
2021/12/31 01:42:21;;;;;;;10.60;9.47;;;5.10;99.90;;;;;;5110986;28;20176;-87
2021/12/31 01:44:56;;;;;;;11.13;9.80;;;5.10;99.90;;;;;;5111208;28;20193;-85
2021/12/31 01:47:23;;;;;;;13.00;9.97;;;5.00;99.90;;;;;;5111128;28;20201;-87
2021/12/31 01:49:58;;;;;;;11.57;10.17;;;5.00;99.90;;;;;;5111227;28;20176;-87
2021/12/31 01:52:25;;;;;;;9.97;8.97;;;4.90;99.90;;;;;;5096571;28;20622;-86
2021/12/31 01:54:51;;;;;;;10.87;9.17;;;5.00;99.90;;;;;;5114865;28;20186;-85
2021/12/31 01:57:20;;;;;;;11.30;10.10;;;5.00;99.90;;;;;;5115214;28;20185;-85
2021/12/31 01:59:46;;;;;;;10.20;9.20;;;5.00;99.90;;;;;;5115018;28;20183;-87
2021/12/31 02:02:12;;;;;;;11.93;9.37;;;5.00;99.90;;;;;;5118571;28;20162;-84
2021/12/31 02:04:40;;;;;;;14.43;9.50;;;5.00;99.90;;;;;;5130727;28;20176;-86
2021/12/31 02:07:07;;;;;;;12.27;10.83;;;4.90;99.90;;;;;;5135627;28;20200;-87
2021/12/31 02:09:37;;;;;;;12.27;10.27;;;4.90;99.90;;;;;;5134390;28;20210;-83
2021/12/31 02:12:04;;;;;;;13.27;10.30;;;4.90;99.90;;;;;;5100367;28;20276;-84
2021/12/31 02:14:31;;;;;;;12.30;10.27;;;4.90;99.90;;;;;;5116931;28;20174;-89
2021/12/31 02:16:57;;;;;;;12.13;10.50;;;4.80;99.90;;;;;;5114727;28;20177;-85
2021/12/31 02:19:29;;;;;;;13.30;10.73;;;4.80;99.90;;;;;;5114204;28;20170;-85
2021/12/31 02:21:56;;;;;;;14.50;12.23;;;4.80;99.90;;;;;;5114276;28;20197;-84
2021/12/31 02:24:22;;;;;;;13.47;11.50;;;4.80;99.90;;;;;;5114108;28;20647;-85
2021/12/31 02:26:49;;;;;;;14.77;11.73;;;4.80;99.90;;;;;;5113708;28;20243;-85
2021/12/31 02:29:16;;;;;;;15.13;12.43;;;4.80;99.90;;;;;;5113803;28;20546;-83
2021/12/31 02:31:42;;;;;;;14.80;12.33;;;4.80;99.90;;;;;;5095370;28;20195;-85
2021/12/31 02:34:08;;;;;;;13.77;12.37;;;4.80;99.90;;;;;;5113554;28;20548;-84
2021/12/31 02:36:34;;;;;;;14.03;12.57;;;4.70;99.90;;;;;;5113712;28;20179;-88
2021/12/31 02:39:00;;;;;;;17.57;13.57;;;4.80;99.90;;;;;;5113598;28;20190;-84
2021/12/31 02:41:26;;;;;;;18.20;13.67;;;4.70;99.90;;;;;;5113419;28;20169;-84
2021/12/31 02:43:52;;;;;;;14.23;12.33;;;4.70;99.90;;;;;;5095075;28;20239;-84
2021/12/31 02:46:18;;;;;;;14.63;13.03;;;4.70;99.90;;;;;;5113627;28;20174;-84
2021/12/31 02:48:44;;;;;;;16.83;13.33;;;4.70;99.90;;;;;;5113702;28;20166;-89
2021/12/31 02:51:10;;;;;;;13.40;12.00;;;4.70;99.90;;;;;;5113520;28;20171;-87
2021/12/31 02:53:40;;;;;;;14.87;13.13;;;4.70;99.90;;;;;;5113729;28;20183;-89
2021/12/31 02:56:12;;;;;;;14.80;12.07;;;4.70;99.90;;;;;;5113895;28;20831;-89
2021/12/31 02:58:40;;;;;;;12.80;10.67;;;4.70;99.90;;;;;;5114284;28;20234;-89
2021/12/31 03:01:07;;;;;;;12.20;10.23;;;4.70;99.90;;;;;;5115072;28;20196;-89
2021/12/31 03:03:35;;;;;;;13.33;11.13;;;4.60;99.90;;;;;;5113890;28;20180;-88
2021/12/31 03:06:01;;;;;;;10.90;9.43;;;4.60;99.90;;;;;;5113537;28;20165;-90
2021/12/31 03:08:31;;;;;;;10.90;9.77;;;4.60;99.90;;;;;;5094719;28;20226;-85
2021/12/31 03:11:00;;;;;;;12.10;9.70;;;4.60;99.90;;;;;;5113065;28;20196;-85
2021/12/31 03:13:26;;;;;;;11.30;9.67;;;4.60;99.90;;;;;;5113509;28;20587;-84
2021/12/31 03:15:53;;;;;;;9.27;8.37;;;4.60;99.90;;;;;;5112994;28;20172;-84
2021/12/31 03:18:19;;;;;;;9.77;8.40;;;4.60;99.90;;;;;;5094281;28;20189;-86
2021/12/31 03:20:57;;;;;;;11.43;8.67;;;4.60;99.90;;;;;;5113056;28;20577;-85
2021/12/31 03:23:27;;;;;;;9.07;8.27;;;4.70;99.90;;;;;;5115133;28;20167;-85
2021/12/31 03:25:53;;;;;;;8.80;7.93;;;4.60;99.90;;;;;;5113272;28;20305;-84
2021/12/31 03:28:20;;;;;;;13.03;8.83;;;4.60;99.90;;;;;;5094911;28;20307;-89
2021/12/31 03:30:47;;;;;;;10.30;7.73;;;4.60;99.90;;;;;;5113153;28;20510;-85
2021/12/31 03:33:13;;;;;;;9.10;8.13;;;4.60;99.90;;;;;;5112904;28;20183;-84
2021/12/31 03:35:39;;;;;;;9.33;8.37;;;4.50;99.90;;;;;;5116569;28;20197;-82
2021/12/31 03:38:05;;;;;;;8.93;8.03;;;4.50;99.90;;;;;;5120897;28;20181;-83
2021/12/31 03:40:31;;;;;;;12.60;8.13;;;4.60;99.90;;;;;;5121456;28;20169;-83
2021/12/31 03:42:56;;;;;;;8.13;7.33;;;4.60;99.90;;;;;;5115574;28;20174;-83
2021/12/31 03:45:22;;;;;;;9.43;7.93;;;4.60;99.90;;;;;;5119066;28;20181;-82
2021/12/31 03:47:48;;;;;;;9.03;6.80;;;4.60;99.90;;;;;;5121206;28;20207;-84
2021/12/31 03:50:14;;;;;;;9.50;7.23;;;4.60;99.90;;;;;;5121263;28;20232;-84
2021/12/31 03:52:40;;;;;;;7.70;7.00;;;4.50;99.90;;;;;;5121338;28;20174;-83
2021/12/31 03:55:08;;;;;;;8.03;7.23;;;4.50;99.90;;;;;;5131544;28;20157;-84
2021/12/31 03:57:34;;;;;;;6.70;6.10;;;4.50;99.90;;;;;;5131136;28;20195;-83
2021/12/31 04:00:00;;;;;;;8.27;7.33;;;4.50;99.90;;;;;;5121052;28;20170;-83
2021/12/31 04:02:26;;;;;;;7.43;6.73;;;4.50;99.90;;;;;;5112914;28;20177;-84
2021/12/31 04:04:52;;;;;;;7.07;6.47;;;4.50;99.90;;;;;;5112401;28;20252;-86
2021/12/31 04:07:19;;;;;;;6.77;6.17;;;4.50;99.90;;;;;;5112360;28;20630;-88
2021/12/31 04:09:45;;;;;;;7.67;6.27;;;4.50;99.90;;;;;;5112438;28;20170;-89
2021/12/31 04:12:11;;;;;;;6.90;6.20;;;4.40;99.90;;;;;;5112449;28;20180;-88
2021/12/31 04:14:37;;;;;;;8.33;6.60;;;4.40;99.90;;;;;;5111748;28;20251;-89
2021/12/31 04:17:02;;;;;;;6.77;6.17;;;4.50;99.90;;;;;;5093594;28;20184;-87
2021/12/31 04:19:28;;;;;;;6.47;5.97;;;4.40;99.90;;;;;;5112354;28;20174;-88
2021/12/31 04:21:54;;;;;;;6.67;5.97;;;4.40;99.90;;;;;;5095060;28;20185;-89
2021/12/31 04:27:04;;;;;;;8.87;7.70;;;4.40;99.90;;;;;;5113151;28;20356;-90
2021/12/31 04:29:30;;;;;;;10.37;8.27;;;4.40;99.90;;;;;;5114332;28;20245;-89
2021/12/31 04:31:56;;;;;;;12.43;11.13;;;4.30;99.90;;;;;;5094934;28;20175;-88
2021/12/31 04:34:22;;;;;;;15.70;11.10;;;4.20;99.90;;;;;;5095042;28;20172;-88
2021/12/31 04:36:47;;;;;;;13.23;10.97;;;4.20;99.90;;;;;;5115259;28;20162;-89
2021/12/31 04:39:13;;;;;;;13.47;12.07;;;4.20;99.90;;;;;;5114476;28;20278;-88
2021/12/31 04:41:39;;;;;;;14.47;12.97;;;4.20;99.90;;;;;;5116373;28;20249;-89
2021/12/31 04:44:05;;;;;;;14.23;11.10;;;4.20;99.90;;;;;;5124042;28;20173;-89
2021/12/31 04:46:30;;;;;;;14.00;11.27;;;4.20;99.90;;;;;;5135359;28;20213;-88
2021/12/31 04:48:56;;;;;;;13.87;12.17;;;4.20;99.90;;;;;;5135245;28;20704;-88
2021/12/31 04:51:22;;;;;;;12.90;11.57;;;4.10;99.90;;;;;;5121761;28;20176;-85
2021/12/31 04:53:48;;;;;;;10.70;9.60;;;4.10;99.90;;;;;;5123696;28;20244;-85
2021/12/31 04:56:13;;;;;;;12.23;11.03;;;4.10;99.90;;;;;;5103919;28;20174;-83
2021/12/31 04:58:39;;;;;;;12.83;10.83;;;4.10;99.90;;;;;;5120130;28;20187;-84
2021/12/31 05:01:05;;;;;;;15.23;10.60;;;4.10;99.90;;;;;;5112541;28;20172;-85
2021/12/31 05:03:31;;;;;;;15.70;10.33;;;4.10;99.90;;;;;;5112100;28;20649;-84
2021/12/31 05:05:56;;;;;;;12.50;10.43;;;4.10;99.90;;;;;;5111680;28;20173;-84
2021/12/31 05:08:22;;;;;;;13.07;10.70;;;4.10;99.90;;;;;;5111539;28;20202;-85
2021/12/31 05:10:48;;;;;;;9.87;8.87;;;4.10;99.90;;;;;;5111852;28;20541;-84
2021/12/31 05:13:15;;;;;;;10.63;9.53;;;4.10;99.90;;;;;;5111594;28;20174;-89
2021/12/31 05:15:46;;;;;;;11.87;10.30;;;4.10;99.90;;;;;;5111739;28;20170;-89
2021/12/31 05:18:13;;;;;;;12.63;9.40;;;4.00;99.90;;;;;;5111841;28;20175;-88
2021/12/31 05:20:39;;;;;;;11.13;9.50;;;4.00;99.90;;;;;;5111701;28;20166;-88
2021/12/31 05:23:05;;;;;;;9.33;8.43;;;4.00;99.90;;;;;;5111612;28;20550;-88
2021/12/31 05:25:31;;;;;;;9.97;8.70;;;3.90;99.90;;;;;;5112776;28;20221;-88
2021/12/31 05:27:57;;;;;;;7.50;6.73;;;3.90;99.90;;;;;;5131261;28;20179;-86
2021/12/31 05:30:24;;;;;;;7.63;6.93;;;3.90;99.90;;;;;;5129644;28;20153;-84
2021/12/31 05:32:50;;;;;;;8.07;7.13;;;4.00;99.90;;;;;;5138881;28;20158;-88
2021/12/31 05:35:16;;;;;;;7.57;6.77;;;3.90;99.90;;;;;;5119998;28;20253;-89
2021/12/31 05:37:42;;;;;;;9.43;8.53;;;4.00;99.90;;;;;;5115461;28;20204;-89
2021/12/31 05:40:09;;;;;;;8.17;7.47;;;4.00;99.90;;;;;;5096998;28;20188;-89
2021/12/31 05:42:35;;;;;;;8.20;7.37;;;4.00;99.90;;;;;;5121617;28;20181;-87
2021/12/31 05:45:00;;;;;;;9.47;7.73;;;4.10;99.90;;;;;;5115432;28;20230;-87
2021/12/31 05:47:26;;;;;;;8.47;7.67;;;4.00;99.90;;;;;;5115572;28;20213;-87
2021/12/31 05:49:52;;;;;;;7.93;7.23;;;4.00;99.90;;;;;;5115471;28;20244;-89
2021/12/31 05:52:18;;;;;;;8.33;7.53;;;3.90;99.90;;;;;;5115123;28;20204;-89
2021/12/31 05:54:44;;;;;;;8.87;8.07;;;3.90;99.90;;;;;;5115001;28;20632;-88
2021/12/31 05:57:10;;;;;;;8.50;7.60;;;3.90;99.90;;;;;;5114887;28;20184;-88
2021/12/31 05:59:35;;;;;;;12.07;9.87;;;3.90;99.90;;;;;;5114995;28;20208;-89
2021/12/31 06:02:01;;;;;;;8.83;7.47;;;3.90;99.90;;;;;;5119268;28;20246;-89
2021/12/31 06:04:27;;;;;;;7.63;6.63;;;3.90;99.90;;;;;;5121180;28;20175;-88
2021/12/31 06:06:53;;;;;;;6.80;6.10;;;3.90;99.90;;;;;;5114963;28;20204;-88
2021/12/31 06:09:18;;;;;;;7.40;6.73;;;3.80;99.90;;;;;;5114871;28;20636;-88
2021/12/31 06:11:45;;;;;;;6.53;5.90;;;3.90;99.90;;;;;;5114564;28;20181;-89
2021/12/31 06:14:12;;;;;;;6.43;5.93;;;3.90;99.90;;;;;;5096347;28;20262;-88
2021/12/31 06:16:42;;;;;;;9.73;6.67;;;4.00;99.90;;;;;;5117476;28;20169;-89
2021/12/31 06:19:10;;;;;;;6.87;6.17;;;3.90;99.90;;;;;;5121718;28;20170;-89
2021/12/31 06:21:39;;;;;;;7.10;5.87;;;3.80;99.90;;;;;;5115366;28;20169;-89
2021/12/31 06:24:05;;;;;;;7.57;5.67;;;3.80;99.90;;;;;;5114827;28;20159;-86
2021/12/31 06:26:31;;;;;;;6.60;5.93;;;3.70;99.90;;;;;;5113888;28;20270;-90
2021/12/31 06:28:56;;;;;;;6.50;5.93;;;3.70;99.90;;;;;;5114406;28;20200;-88
2021/12/31 06:31:23;;;;;;;6.43;5.77;;;3.80;99.90;;;;;;5113979;28;20197;-88
2021/12/31 06:33:49;;;;;;;6.93;6.30;;;3.70;99.90;;;;;;5113929;28;20177;-85
2021/12/31 06:36:16;;;;;;;6.37;5.80;;;3.70;99.90;;;;;;5113945;28;20251;-88
2021/12/31 06:38:45;;;;;;;7.20;6.10;;;3.70;99.90;;;;;;5114064;28;20189;-86
2021/12/31 06:41:10;;;;;;;7.23;6.00;;;3.70;99.90;;;;;;5113970;28;20539;-86
2021/12/31 06:43:36;;;;;;;8.37;5.97;;;3.70;99.90;;;;;;5113827;28;20187;-85
2021/12/31 06:46:02;;;;;;;6.27;5.63;;;3.60;99.90;;;;;;5095384;28;20188;-86
2021/12/31 06:48:28;;;;;;;7.00;5.93;;;3.70;99.90;;;;;;5095383;28;20305;-85
2021/12/31 06:50:54;;;;;;;6.63;6.03;;;3.60;99.90;;;;;;5114434;28;20177;-87
2021/12/31 06:53:22;;;;;;;6.40;5.10;;;3.60;99.90;;;;;;5114061;28;20190;-88
2021/12/31 06:55:48;;;;;;;5.77;5.23;;;3.70;99.90;;;;;;5115300;28;20686;-85
2021/12/31 06:58:14;;;;;;;6.20;5.60;;;3.60;99.90;;;;;;5096898;28;20192;-87
2021/12/31 07:00:41;;;;;;;6.07;5.57;;;3.70;99.90;;;;;;5113916;28;20181;-84
2021/12/31 07:03:12;;;;;;;6.73;5.90;;;3.70;99.90;;;;;;5096561;28;20181;-87
2021/12/31 07:05:42;;;;;;;6.60;6.00;;;3.70;99.90;;;;;;5114924;28;20296;-89
2021/12/31 07:08:08;;;;;;;6.57;5.93;;;3.60;99.90;;;;;;5116616;28;20205;-90
2021/12/31 07:10:34;;;;;;;6.73;5.93;;;3.70;99.90;;;;;;5132317;28;20298;-85
2021/12/31 07:13:04;;;;;;;6.27;5.77;;;3.70;99.90;;;;;;5108682;28;20164;-85
2021/12/31 07:15:31;;;;;;;7.27;6.13;;;3.80;99.90;;;;;;5117733;28;20527;-88
2021/12/31 07:17:56;;;;;;;6.80;6.20;;;3.80;99.90;;;;;;5116011;28;20217;-88
2021/12/31 07:20:22;;;;;;;6.37;5.87;;;3.80;99.90;;;;;;5114130;28;20164;-88
2021/12/31 07:22:48;;;;;;;8.83;7.10;;;3.80;99.90;;;;;;5115328;28;20532;-90
2021/12/31 07:25:14;;;;;;;6.63;5.93;;;3.80;99.90;;;;;;5113447;28;20165;-89
2021/12/31 07:27:40;;;;;;;6.20;5.70;;;3.80;99.90;;;;;;5113602;28;20258;-90
2021/12/31 07:30:06;;;;;;;6.43;5.83;;;3.80;99.90;;;;;;5116344;28;20173;-90
2021/12/31 07:32:37;;;;;;;6.27;5.73;;;3.90;99.90;;;;;;5116092;28;20208;-91
2021/12/31 07:35:04;;;;;;;6.17;5.57;;;3.90;99.90;;;;;;5129559;28;20173;-86
2021/12/31 07:37:30;;;;;;;6.37;5.77;;;4.00;99.90;;;;;;5112805;28;20555;-88
2021/12/31 07:40:01;;;;;;;6.30;5.70;;;4.00;99.90;;;;;;5113213;28;20172;-85
2021/12/31 07:42:27;;;;;;;6.73;6.00;;;4.10;99.90;;;;;;5112816;28;20160;-85
2021/12/31 07:44:53;;;;;;;6.87;6.17;;;4.10;99.90;;;;;;5112774;28;20226;-88
2021/12/31 07:47:19;;;;;;;6.90;6.30;;;4.10;99.90;;;;;;5112066;28;20216;-85
2021/12/31 07:49:44;;;;;;;7.10;6.40;;;4.10;99.90;;;;;;5112073;28;20215;-85
2021/12/31 07:52:10;;;;;;;6.03;5.43;;;4.20;99.90;;;;;;5112246;28;20628;-84
2021/12/31 07:54:36;;;;;;;6.10;5.50;;;4.30;99.90;;;;;;5112016;28;20175;-84
2021/12/31 07:57:02;;;;;;;6.90;6.17;;;4.40;99.90;;;;;;5112663;28;20177;-89
2021/12/31 07:59:28;;;;;;;6.43;5.80;;;4.40;99.90;;;;;;5116114;28;20170;-88
2021/12/31 08:01:54;;;;;;;6.57;5.93;;;4.40;99.90;;;;;;5099669;28;20191;-88
2021/12/31 08:04:19;;;;;;;6.70;6.10;;;4.50;99.90;;;;;;5124576;28;20171;-87
2021/12/31 08:06:45;;;;;;;7.37;5.93;;;4.60;99.90;;;;;;5116519;28;20202;-89
2021/12/31 08:09:11;;;;;;;6.63;5.90;;;4.60;99.90;;;;;;5126300;28;20172;-83
2021/12/31 08:11:37;;;;;;;6.03;5.40;;;4.70;99.90;;;;;;5118070;28;20618;-87
2021/12/31 08:14:04;;;;;;;6.93;5.93;;;4.70;99.90;;;;;;5096112;28;20238;-86
2021/12/31 08:16:30;;;;;;;6.43;5.87;;;4.70;99.90;;;;;;5126041;28;20178;-87
2021/12/31 08:18:56;;;;;;;5.73;5.27;;;4.80;99.90;;;;;;5122962;28;20189;-83
2021/12/31 08:21:21;;;;;;;6.00;5.50;;;4.90;99.90;;;;;;5130181;28;20181;-86
2021/12/31 08:23:48;;;;;;;5.57;5.07;;;5.00;99.90;;;;;;5127788;28;20182;-87
2021/12/31 08:26:14;;;;;;;6.10;5.50;;;5.10;99.90;;;;;;5123859;28;20240;-83
2021/12/31 08:28:40;;;;;;;6.73;5.70;;;5.20;99.90;;;;;;5113854;28;20213;-85
2021/12/31 08:31:06;;;;;;;9.67;5.97;;;5.30;99.90;;;;;;5113994;28;20176;-86
2021/12/31 08:33:32;;;;;;;8.13;5.47;;;5.40;99.90;;;;;;5094216;28;20243;-88
2021/12/31 08:35:58;;;;;;;8.07;6.40;;;5.40;99.90;;;;;;5113001;28;20201;-85
2021/12/31 08:38:24;;;;;;;8.50;7.17;;;5.40;99.90;;;;;;5112272;28;20209;-85
2021/12/31 08:40:51;;;;;;;8.43;7.57;;;5.50;99.90;;;;;;5112065;28;20621;-90
2021/12/31 08:43:17;;;;;;;11.20;9.90;;;5.50;99.90;;;;;;5112276;28;20692;-84
2021/12/31 08:45:43;;;;;;;9.77;8.47;;;5.50;99.90;;;;;;5096886;28;20201;-88
2021/12/31 08:48:09;;;;;;;15.47;11.17;;;5.50;99.90;;;;;;5117967;28;20216;-85
2021/12/31 08:50:35;;;;;;;12.80;11.40;;;5.60;99.90;;;;;;5093812;28;20173;-87
2021/12/31 08:53:01;;;;;;;13.00;11.37;;;5.50;99.90;;;;;;5112342;28;20231;-86
2021/12/31 08:55:27;;;;;;;14.03;11.03;;;5.50;99.90;;;;;;5120390;28;20215;-84
2021/12/31 08:57:53;;;;;;;14.80;12.93;;;5.50;99.90;;;;;;5130132;28;20220;-84
2021/12/31 09:00:19;;;;;;;14.33;11.93;;;5.60;99.90;;;;;;5120748;28;20570;-86
2021/12/31 09:02:50;;;;;;;14.30;12.80;;;5.60;99.90;;;;;;5117363;28;20170;-86
2021/12/31 09:05:16;;;;;;;16.40;13.50;;;5.60;99.90;;;;;;5123896;28;20232;-84
2021/12/31 09:07:42;;;;;;;15.83;13.93;;;5.60;99.90;;;;;;5123447;28;20208;-87
2021/12/31 09:10:08;;;;;;;17.23;14.00;;;5.60;99.90;;;;;;5120036;28;20721;-85
2021/12/31 09:12:35;;;;;;;21.17;15.77;;;5.60;99.90;;;;;;5121518;28;20184;-84
2021/12/31 09:15:01;;;;;;;22.30;15.87;;;5.60;99.90;;;;;;5125641;28;20257;-85
2021/12/31 09:17:27;;;;;;;18.33;15.37;;;5.60;99.90;;;;;;5123956;28;20194;-86
2021/12/31 09:19:52;;;;;;;17.73;14.87;;;5.70;99.90;;;;;;5121131;28;20173;-84
2021/12/31 09:22:18;;;;;;;20.90;17.67;;;5.70;99.90;;;;;;5118613;28;20248;-85
2021/12/31 09:24:48;;;;;;;22.03;16.87;;;5.70;99.90;;;;;;5130407;28;20169;-86
2021/12/31 09:27:14;;;;;;;24.10;17.10;;;5.80;99.90;;;;;;5133704;28;20224;-85
2021/12/31 09:29:41;;;;;;;20.13;16.27;;;5.70;99.90;;;;;;5120987;28;20249;-84
2021/12/31 09:32:07;;;;;;;18.87;15.63;;;5.80;99.90;;;;;;5116524;28;20626;-84
2021/12/31 09:34:33;;;;;;;19.40;16.67;;;5.90;99.90;;;;;;5115531;28;20165;-90
2021/12/31 09:36:59;;;;;;;17.43;15.57;;;5.90;99.90;;;;;;5116800;28;20181;-89
2021/12/31 09:39:25;;;;;;;22.07;15.37;;;5.90;99.90;;;;;;5117454;28;20170;-91
2021/12/31 09:41:51;;;;;;;16.53;13.37;;;6.00;99.90;;;;;;5103213;28;20188;-92
2021/12/31 09:44:20;;;;;;;15.90;13.17;;;6.10;99.90;;;;;;5118800;28;20166;-91
2021/12/31 09:46:46;;;;;;;16.30;12.57;;;6.20;99.90;;;;;;5117675;28;20199;-84
2021/12/31 09:49:12;;;;;;;15.00;13.40;;;6.30;99.90;;;;;;5115295;28;20664;-84
2021/12/31 09:51:42;;;;;;;14.77;12.90;;;6.40;99.90;;;;;;5115440;28;20179;-84
2021/12/31 09:54:08;;;;;;;14.47;12.30;;;6.50;99.90;;;;;;5115485;28;20181;-85
2021/12/31 09:56:39;;;;;;;14.93;11.40;;;6.50;99.90;;;;;;5115530;28;20170;-89
2021/12/31 09:59:06;;;;;;;14.47;11.90;;;6.60;99.90;;;;;;5115333;28;20159;-86
2021/12/31 10:01:31;;;;;;;12.40;11.10;;;6.70;99.90;;;;;;5115957;28;20167;-89
2021/12/31 10:04:00;;;;;;;16.87;11.77;;;6.80;99.90;;;;;;5115726;28;20240;-90
2021/12/31 10:06:26;;;;;;;15.63;10.90;;;6.80;99.90;;;;;;5115850;28;20162;-89
2021/12/31 10:08:57;;;;;;;13.73;11.20;;;7.00;99.90;;;;;;5114785;28;20202;-88
2021/12/31 10:11:26;;;;;;;15.90;12.30;;;7.10;99.90;;;;;;5096501;28;20248;-90
2021/12/31 10:13:54;;;;;;;16.73;13.80;;;7.30;99.90;;;;;;5115070;28;20178;-86
2021/12/31 10:16:30;;;;;;;17.87;14.17;;;7.30;99.90;;;;;;5115116;28;20175;-90
2021/12/31 10:19:09;;;;;;;18.07;14.90;;;7.30;99.90;;;;;;5114870;28;20176;-89
2021/12/31 10:21:46;;;;;;;17.40;15.57;;;7.30;99.90;;;;;;5098132;28;20526;-87
2021/12/31 10:24:21;;;;;;;18.87;14.93;;;7.30;99.90;;;;;;5114851;28;20219;-84
2021/12/31 10:26:47;;;;;;;17.13;15.27;;;7.40;99.90;;;;;;5113876;28;20228;-86
2021/12/31 10:29:13;;;;;;;19.40;15.50;;;7.40;99.90;;;;;;5114054;28;20849;-85
2021/12/31 10:31:43;;;;;;;21.87;16.00;;;7.50;99.90;;;;;;5096111;28;20174;-86
2021/12/31 10:34:25;;;;;;;18.20;16.27;;;7.60;99.90;;;;;;5114030;28;20666;-87
2021/12/31 10:36:51;;;;;;;17.87;15.50;;;7.70;99.90;;;;;;5126915;28;20161;-83
2021/12/31 10:39:22;;;;;;;19.60;15.83;;;7.70;99.90;;;;;;5123926;28;20192;-84
2021/12/31 10:42:02;;;;;;;20.57;17.37;;;7.80;99.90;;;;;;5125032;28;20594;-86
2021/12/31 10:44:44;;;;;;;19.97;16.73;;;7.90;99.90;;;;;;5115898;28;20220;-85
2021/12/31 10:47:15;;;;;;;18.13;16.23;;;8.00;99.90;;;;;;5114005;28;20202;-84
2021/12/31 10:50:11;;;;;;;26.80;16.87;;;8.00;99.90;;;;;;5095011;28;20506;-85
2021/12/31 10:52:53;;;;;;;18.20;15.70;;;8.00;99.90;;;;;;5111446;28;20182;-85
2021/12/31 10:55:24;;;;;;;20.40;16.50;;;8.10;99.90;;;;;;5079322;28;20695;-85
2021/12/31 10:57:58;;;;;;;18.83;16.43;;;8.20;99.90;;;;;;5113662;28;20163;-84
2021/12/31 11:00:30;;;;;;;19.30;15.83;;;8.30;99.90;;;;;;5114299;28;20161;-84
2021/12/31 11:02:57;;;;;;;17.77;15.20;;;8.40;99.90;;;;;;5114502;28;20161;-84
2021/12/31 11:05:24;;;;;;;17.87;15.90;;;8.40;99.90;;;;;;5114603;28;20658;-84
2021/12/31 11:07:52;;;;;;;17.03;15.20;;;8.40;99.90;;;;;;5114433;28;20731;-85
2021/12/31 11:10:25;;;;;;;17.97;15.70;;;8.50;99.90;;;;;;5113871;28;20175;-85
2021/12/31 11:12:52;;;;;;;17.90;14.40;;;8.60;99.90;;;;;;5115092;28;20183;-85
2021/12/31 11:15:18;;;;;;;18.40;15.10;;;8.60;99.90;;;;;;5134198;28;20164;-86
2021/12/31 11:17:44;;;;;;;18.23;15.23;;;8.60;99.90;;;;;;5132912;28;20183;-84
2021/12/31 11:20:12;;;;;;;20.20;14.43;;;8.70;99.90;;;;;;5118324;28;20204;-85
2021/12/31 11:22:38;;;;;;;18.37;14.80;;;8.70;99.90;;;;;;5106782;28;20533;-87
2021/12/31 11:25:22;;;;;;;15.53;13.80;;;8.80;99.90;;;;;;5116000;28;20172;-91
2021/12/31 11:27:48;;;;;;;16.03;13.80;;;8.80;99.90;;;;;;5115560;28;20199;-85
2021/12/31 11:30:42;;;;;;;14.53;12.97;;;8.90;99.90;;;;;;5114939;28;20230;-86
2021/12/31 11:33:14;;;;;;;14.97;13.10;;;9.00;99.90;;;;;;5116760;28;20161;-91
2021/12/31 11:35:40;;;;;;;17.33;13.20;;;9.10;99.90;;;;;;5116256;28;20153;-93
2021/12/31 11:38:12;;;;;;;18.03;12.63;;;9.20;99.90;;;;;;5118525;28;20203;-90
2021/12/31 11:40:40;;;;;;;17.90;12.70;;;9.40;99.90;;;;;;5116296;28;20197;-86
2021/12/31 11:43:27;;;;;;;17.43;13.60;;;9.40;99.90;;;;;;5118409;28;20177;-89
2021/12/31 11:46:11;;;;;;;15.57;13.03;;;9.50;99.90;;;;;;5116288;28;20166;-86
2021/12/31 11:48:43;;;;;;;15.57;13.97;;;9.50;99.90;;;;;;5096894;28;20212;-90
2021/12/31 11:51:10;;;;;;;16.63;13.20;;;9.60;99.90;;;;;;5115790;28;20197;-86
2021/12/31 11:53:55;;;;;;;16.37;13.17;;;9.60;99.90;;;;;;5096111;28;20173;-92
2021/12/31 11:56:47;;;;;;;16.10;12.57;;;9.60;99.90;;;;;;5118636;28;20256;-91
2021/12/31 11:59:13;;;;;;;16.97;12.50;;;9.70;99.90;;;;;;5096066;28;20710;-90
2021/12/31 12:01:53;;;;;;;18.70;13.03;;;9.80;99.90;;;;;;5114189;28;20260;-91
2021/12/31 12:04:25;;;;;;;14.77;13.10;;;9.80;99.90;;;;;;5115889;28;20659;-90
2021/12/31 12:07:10;;;;;;;16.70;13.00;;;9.90;99.90;;;;;;5116983;28;20194;-88
2021/12/31 12:09:36;;;;;;;13.47;12.07;;;9.90;99.90;;;;;;5115421;28;20169;-90
2021/12/31 12:12:04;;;;;;;16.40;12.43;;;9.90;99.90;;;;;;5114311;28;20177;-90
2021/12/31 12:14:40;;;;;;;16.63;13.70;;;9.90;99.90;;;;;;5097996;28;20181;-90
2021/12/31 12:17:07;;;;;;;18.33;14.30;;;9.90;99.90;;;;;;5115894;28;20170;-89
2021/12/31 12:19:51;;;;;;;17.37;14.57;;;10.00;99.90;;;;;;5130723;28;20226;-90
2021/12/31 12:22:28;;;;;;;16.83;13.43;;;10.00;99.90;;;;;;5124094;28;20197;-90
2021/12/31 12:24:59;;;;;;;17.17;15.20;;;10.10;99.90;;;;;;5133331;28;20182;-86
2021/12/31 12:27:26;;;;;;;16.63;13.63;;;10.10;99.90;;;;;;5105084;28;20221;-87
2021/12/31 12:29:54;;;;;;;21.63;14.97;;;10.10;99.90;;;;;;5120612;28;20185;-87
2021/12/31 12:32:53;;;;;;;15.20;13.37;;;10.20;99.90;;;;;;5114469;28;20256;-85
2021/12/31 12:35:18;;;;;;;17.57;12.47;;;10.20;99.90;;;;;;5111051;28;20701;-84
2021/12/31 12:37:54;;;;;;;14.40;12.53;;;10.10;99.90;;;;;;5113418;28;20296;-90
2021/12/31 12:40:20;;;;;;;16.40;12.17;;;10.20;99.90;;;;;;5114980;28;20166;-90
2021/12/31 12:42:46;;;;;;;12.87;11.53;;;10.20;99.90;;;;;;5114986;28;20173;-88
2021/12/31 12:45:12;;;;;;;19.97;11.43;;;10.20;99.90;;;;;;5116484;28;20533;-91
2021/12/31 12:47:38;;;;;;;13.13;11.73;;;10.30;99.90;;;;;;5116228;28;20213;-88
2021/12/31 12:50:09;;;;;;;13.17;11.67;;;10.30;99.90;;;;;;5115314;28;20273;-88
2021/12/31 12:52:36;;;;;;;13.33;11.93;;;10.40;99.90;;;;;;5116515;28;20185;-91